首页
METAR-TAF:

METAR-TAF

机场 :

石油平台

P11-b, 荷兰

纬度: 52-21-36N, 经度: 3-20-30E, 海拔: 24米

当前天气观测

该预报发布于25分钟前的17:55 UTC
风速13节,风向西北,在西之间变化
温度 11°C
湿度 71%
气压 999 hPa
能见度10公里或以上
少量云层高于1700英尺

METAR: EHPG 041755Z AUTO 31013KT 270V350 9999 FEW017 11/06 Q0999

时间: 20:20 (18:20 UTC)


TAF: 丢失

超过4000个机场的气象观测和天气预报(METAR&TAF报告)。

可查询的气象台以黄色和红色小点在地图上表示。

将鼠标移到小点上方,可查看气象台名称。

然后点击查看天气观测和预报。

如需切换地图:点击带黑十字的绿色按钮放大地图;点击带横线的绿色按钮缩小地图;或者点击绿色箭头查看邻近地区的地图。


METAR-TAF: